createdAt,value
2023-04-13T00:00:46.179Z,0
2023-04-13T00:01:46.261Z,0
2023-04-13T00:02:46.240Z,0
2023-04-13T00:03:46.317Z,0
2023-04-13T00:04:46.209Z,0
2023-04-13T00:05:46.499Z,0
2023-04-13T00:06:46.178Z,0
2023-04-13T00:07:46.189Z,0
2023-04-13T00:08:46.186Z,0
2023-04-13T00:09:46.181Z,0
2023-04-13T00:10:46.303Z,0
2023-04-13T00:11:46.180Z,0
2023-04-13T00:12:46.181Z,0
2023-04-13T00:13:46.178Z,0
2023-04-13T00:14:46.179Z,0
2023-04-13T00:15:46.179Z,0
2023-04-13T00:16:46.234Z,0
2023-04-13T00:17:46.212Z,0
2023-04-13T00:18:46.183Z,0
2023-04-13T00:19:46.183Z,0
2023-04-13T00:20:46.206Z,0
2023-04-13T00:21:46.182Z,0
2023-04-13T00:22:46.181Z,0
2023-04-13T00:23:46.184Z,0
2023-04-13T00:24:46.188Z,0
2023-04-13T00:25:46.180Z,0
2023-04-13T00:26:46.184Z,0
2023-04-13T00:27:46.189Z,0
2023-04-13T00:28:46.183Z,0
2023-04-13T00:29:46.184Z,0
2023-04-13T00:30:46.207Z,0
2023-04-13T00:31:46.187Z,0
2023-04-13T00:32:46.226Z,0
2023-04-13T00:33:46.190Z,0
2023-04-13T00:34:46.182Z,0
2023-04-13T00:35:46.187Z,0
2023-04-13T00:36:46.211Z,0
2023-04-13T00:37:46.186Z,0
2023-04-13T00:38:46.189Z,0
2023-04-13T00:39:46.195Z,0
2023-04-13T00:40:46.191Z,0
2023-04-13T00:41:46.190Z,0
2023-04-13T00:42:46.192Z,0
2023-04-13T00:43:46.194Z,0
2023-04-13T00:44:46.185Z,0
2023-04-13T00:45:46.186Z,0
2023-04-13T00:46:46.266Z,0
2023-04-13T00:47:46.211Z,0
2023-04-13T00:48:46.187Z,0
2023-04-13T00:49:46.186Z,0
2023-04-13T00:50:46.190Z,0
2023-04-13T00:51:46.188Z,0
2023-04-13T00:52:46.231Z,0
2023-04-13T00:53:46.193Z,0
2023-04-13T00:54:46.192Z,0
2023-04-13T00:55:46.195Z,0
2023-04-13T00:56:46.198Z,0
2023-04-13T00:57:46.199Z,0
2023-04-13T00:58:46.194Z,0
2023-04-13T00:59:46.199Z,0
2023-04-13T01:00:46.195Z,0
2023-04-13T01:01:46.301Z,0
2023-04-13T01:02:46.237Z,0
2023-04-13T01:03:46.192Z,0
2023-04-13T01:04:46.226Z,0
2023-04-13T01:05:46.191Z,0
2023-04-13T01:06:46.191Z,0
2023-04-13T01:07:46.196Z,0
2023-04-13T01:08:46.214Z,0
2023-04-13T01:09:46.193Z,0
2023-04-13T01:10:46.194Z,0
2023-04-13T01:11:46.197Z,0
2023-04-13T01:12:46.198Z,0
2023-04-13T01:13:46.200Z,0
2023-04-13T01:14:46.201Z,0
2023-04-13T01:15:46.232Z,0
2023-04-13T01:16:46.200Z,0
2023-04-13T01:17:46.229Z,0
2023-04-13T01:18:46.200Z,0
2023-04-13T01:19:46.204Z,0
2023-04-13T01:20:46.203Z,0
2023-04-13T01:21:46.206Z,0
2023-04-13T01:22:46.200Z,0
2023-04-13T01:23:46.211Z,0
2023-04-13T01:24:46.223Z,0
2023-04-13T01:25:46.202Z,0
2023-04-13T01:26:46.198Z,0
2023-04-13T01:27:46.206Z,0
2023-04-13T01:28:46.214Z,0
2023-04-13T01:29:46.204Z,0
2023-04-13T01:30:46.219Z,0
2023-04-13T01:31:46.244Z,0
2023-04-13T01:32:46.222Z,0
2023-04-13T01:33:46.203Z,0
2023-04-13T01:34:46.233Z,0
2023-04-13T01:35:46.205Z,0
2023-04-13T01:36:46.212Z,0
2023-04-13T01:37:46.210Z,0
2023-04-13T01:38:46.210Z,0
2023-04-13T01:39:46.961Z,0
2023-04-13T01:40:46.231Z,0
2023-04-13T01:41:46.208Z,0
2023-04-13T01:42:46.208Z,0
2023-04-13T01:43:46.235Z,0
2023-04-13T01:44:46.207Z,0
2023-04-13T01:45:46.217Z,0
2023-04-13T01:46:46.301Z,0
2023-04-13T01:47:46.230Z,0
2023-04-13T01:48:46.206Z,0
2023-04-13T01:49:46.211Z,0
2023-04-13T01:50:46.216Z,0
2023-04-13T01:51:46.213Z,0
2023-04-13T01:52:46.213Z,0
2023-04-13T01:53:46.210Z,0
2023-04-13T01:54:46.210Z,0
2023-04-13T01:55:46.223Z,0
2023-04-13T01:56:46.235Z,0
2023-04-13T01:57:46.213Z,0
2023-04-13T01:58:46.213Z,0
2023-04-13T01:59:46.212Z,0
2023-04-13T02:00:46.244Z,0
2023-04-13T02:01:46.232Z,0
2023-04-13T02:02:46.286Z,0
2023-04-13T02:03:46.265Z,0
2023-04-13T02:04:46.214Z,0
2023-04-13T02:05:46.213Z,0
2023-04-13T02:06:46.223Z,0
2023-04-13T02:07:46.215Z,0
2023-04-13T02:08:46.218Z,0
2023-04-13T02:09:46.215Z,0
2023-04-13T02:10:46.212Z,0
2023-04-13T02:11:46.216Z,0
2023-04-13T02:12:46.241Z,0
2023-04-13T02:13:46.223Z,0
2023-04-13T02:14:46.214Z,0
2023-04-13T02:15:46.212Z,0
2023-04-13T02:16:46.259Z,0
2023-04-13T02:17:46.251Z,0
2023-04-13T02:18:46.218Z,0
2023-04-13T02:19:46.218Z,0
2023-04-13T02:20:46.219Z,0
2023-04-13T02:21:46.219Z,0
2023-04-13T02:22:46.218Z,0
2023-04-13T02:23:46.228Z,0
2023-04-13T02:24:46.225Z,0
2023-04-13T02:25:47.821Z,0
2023-04-13T02:26:46.230Z,0
2023-04-13T02:27:46.239Z,0
2023-04-13T02:28:46.243Z,0
2023-04-13T02:29:46.220Z,0
2023-04-13T02:30:46.226Z,0
2023-04-13T02:31:46.286Z,0
2023-04-13T02:32:46.272Z,0
2023-04-13T02:33:46.253Z,0
2023-04-13T02:34:46.227Z,0
2023-04-13T02:35:46.226Z,0
2023-04-13T02:36:46.230Z,0
2023-04-13T02:37:46.227Z,0
2023-04-13T02:38:46.237Z,0
2023-04-13T02:39:46.234Z,0
2023-04-13T02:40:46.231Z,0
2023-04-13T02:41:46.229Z,0
2023-04-13T02:42:46.239Z,0
2023-04-13T02:43:46.225Z,0
2023-04-13T02:44:46.255Z,0
2023-04-13T02:45:46.272Z,0
2023-04-13T02:46:46.229Z,0
2023-04-13T02:47:46.277Z,0
2023-04-13T02:48:46.225Z,0
2023-04-13T02:49:46.231Z,0
2023-04-13T02:50:46.230Z,0
2023-04-13T02:51:46.227Z,0
2023-04-13T02:52:46.231Z,0
2023-04-13T02:53:46.228Z,0
2023-04-13T02:54:46.224Z,0
2023-04-13T02:55:46.227Z,0
2023-04-13T02:56:46.228Z,0
2023-04-13T02:57:46.237Z,0
2023-04-13T02:58:46.226Z,0
2023-04-13T02:59:46.229Z,0
2023-04-13T03:00:46.297Z,0
2023-04-13T03:01:46.323Z,0
2023-04-13T03:02:46.282Z,0
2023-04-13T03:03:46.231Z,0
2023-04-13T03:04:46.266Z,0
2023-04-13T03:05:46.245Z,0
2023-04-13T03:06:46.283Z,0
2023-04-13T03:07:46.230Z,0
2023-04-13T03:08:46.281Z,0
2023-04-13T03:09:46.231Z,0
2023-04-13T03:10:46.231Z,0
2023-04-13T03:11:46.230Z,0
2023-04-13T03:12:46.232Z,0
2023-04-13T03:13:46.229Z,0
2023-04-13T03:14:46.237Z,0
2023-04-13T03:15:46.227Z,0
2023-04-13T03:16:46.331Z,0
2023-04-13T03:17:46.248Z,0
2023-04-13T03:18:46.228Z,0
2023-04-13T03:19:46.233Z,0
2023-04-13T03:20:46.236Z,0
2023-04-13T03:21:46.236Z,0
2023-04-13T03:22:46.239Z,0
2023-04-13T03:23:46.236Z,0
2023-04-13T03:24:46.237Z,0
2023-04-13T03:25:46.234Z,0
2023-04-13T03:26:46.236Z,0
2023-04-13T03:27:46.239Z,0
2023-04-13T03:28:46.252Z,0
2023-04-13T03:29:46.239Z,0
2023-04-13T03:30:46.247Z,0
2023-04-13T03:31:46.292Z,0
2023-04-13T03:32:46.337Z,0
2023-04-13T03:33:46.243Z,0
2023-04-13T03:34:46.240Z,0
2023-04-13T03:35:46.238Z,0
2023-04-13T03:36:46.242Z,0
2023-04-13T03:37:46.241Z,0
2023-04-13T03:38:46.243Z,0
2023-04-13T03:39:46.242Z,0
2023-04-13T03:40:46.241Z,0
2023-04-13T03:41:46.243Z,0
2023-04-13T03:42:46.247Z,0
2023-04-13T03:43:46.242Z,0
2023-04-13T03:44:46.244Z,0
2023-04-13T03:45:46.251Z,0
2023-04-13T03:46:46.265Z,0
2023-04-13T03:47:46.245Z,0
2023-04-13T03:48:46.271Z,0
2023-04-13T03:49:46.249Z,0
2023-04-13T03:50:46.252Z,0
2023-04-13T03:51:46.245Z,0
2023-04-13T03:52:46.245Z,0
2023-04-13T03:53:46.252Z,0
2023-04-13T03:54:46.277Z,0
2023-04-13T03:55:46.248Z,0
2023-04-13T03:56:46.251Z,0
2023-04-13T03:57:46.249Z,0
2023-04-13T03:58:46.248Z,0
2023-04-13T03:59:46.251Z,0
2023-04-13T04:00:46.253Z,0
2023-04-13T04:01:46.299Z,0
2023-04-13T04:02:46.438Z,0
2023-04-13T04:03:46.334Z,0
2023-04-13T04:04:46.322Z,0
2023-04-13T04:05:46.258Z,0
2023-04-13T04:06:46.251Z,0
2023-04-13T04:07:46.257Z,0
2023-04-13T04:08:46.269Z,0
2023-04-13T04:09:46.256Z,0
2023-04-13T04:10:46.259Z,1
2023-04-13T04:11:46.263Z,1
2023-04-13T04:12:46.254Z,1
2023-04-13T04:13:46.255Z,1
2023-04-13T04:14:46.261Z,1
2023-04-13T04:15:46.259Z,2
2023-04-13T04:16:46.319Z,2
2023-04-13T04:17:46.269Z,2
2023-04-13T04:18:46.255Z,2
2023-04-13T04:19:46.254Z,2
2023-04-13T04:20:46.295Z,3
2023-04-13T04:21:46.260Z,3
2023-04-13T04:22:46.260Z,3
2023-04-13T04:23:46.264Z,3
2023-04-13T04:24:46.255Z,3
2023-04-13T04:25:46.255Z,6
2023-04-13T04:26:46.263Z,6
2023-04-13T04:27:46.261Z,6
2023-04-13T04:28:46.258Z,6
2023-04-13T04:29:46.258Z,6
2023-04-13T04:30:46.261Z,8
2023-04-13T04:31:46.274Z,8
2023-04-13T04:32:46.288Z,8
2023-04-13T04:33:46.257Z,8
2023-04-13T04:34:46.257Z,8
2023-04-13T04:35:46.261Z,10
2023-04-13T04:36:46.316Z,10
2023-04-13T04:37:46.258Z,10
2023-04-13T04:38:46.260Z,10
2023-04-13T04:39:46.260Z,10
2023-04-13T04:40:46.263Z,16
2023-04-13T04:41:46.261Z,16
2023-04-13T04:42:46.267Z,16
2023-04-13T04:43:46.261Z,16
2023-04-13T04:44:46.265Z,16
2023-04-13T04:45:46.296Z,19
2023-04-13T04:46:46.262Z,19
2023-04-13T04:47:46.284Z,19
2023-04-13T04:48:46.262Z,19
2023-04-13T04:49:46.262Z,19
2023-04-13T04:50:46.264Z,21
2023-04-13T04:51:46.263Z,21
2023-04-13T04:52:46.298Z,21
2023-04-13T04:53:46.265Z,21
2023-04-13T04:54:46.265Z,21
2023-04-13T04:55:46.261Z,23
2023-04-13T04:56:46.262Z,23
2023-04-13T04:57:46.260Z,23
2023-04-13T04:58:46.276Z,23
2023-04-13T04:59:46.264Z,23
2023-04-13T05:00:46.291Z,23
2023-04-13T05:01:46.344Z,23
2023-04-13T05:02:46.336Z,25
2023-04-13T05:03:46.267Z,25
2023-04-13T05:04:46.263Z,25
2023-04-13T05:05:46.303Z,25
2023-04-13T05:06:46.266Z,25
2023-04-13T05:07:46.274Z,24
2023-04-13T05:08:46.290Z,24
2023-04-13T05:09:46.267Z,24
2023-04-13T05:10:46.306Z,24
2023-04-13T05:11:46.266Z,24
2023-04-13T05:12:46.269Z,26
2023-04-13T05:13:46.267Z,26
2023-04-13T05:14:46.269Z,26
2023-04-13T05:15:46.287Z,26
2023-04-13T05:16:46.269Z,26
2023-04-13T05:17:46.314Z,31
2023-04-13T05:18:46.267Z,31
2023-04-13T05:19:46.267Z,31
2023-04-13T05:20:46.275Z,31
2023-04-13T05:21:46.277Z,31
2023-04-13T05:22:46.266Z,37
2023-04-13T05:23:46.267Z,37
2023-04-13T05:24:46.319Z,37
2023-04-13T05:25:46.268Z,37
2023-04-13T05:26:46.269Z,37
2023-04-13T05:27:46.279Z,46
2023-04-13T05:28:46.268Z,46
2023-04-13T05:29:47.540Z,46
2023-04-13T05:30:46.270Z,46
2023-04-13T05:31:46.316Z,46
2023-04-13T05:32:46.321Z,59
2023-04-13T05:33:46.274Z,59
2023-04-13T05:34:46.268Z,59
2023-04-13T05:35:46.268Z,59
2023-04-13T05:36:46.278Z,59
2023-04-13T05:37:46.278Z,65
2023-04-13T05:38:46.273Z,65
2023-04-13T05:39:46.272Z,65
2023-04-13T05:40:46.297Z,65
2023-04-13T05:41:46.286Z,65
2023-04-13T05:42:46.270Z,69
2023-04-13T05:43:46.271Z,69
2023-04-13T05:44:46.278Z,69
2023-04-13T05:45:46.331Z,69
2023-04-13T05:46:46.277Z,69
2023-04-13T05:47:46.353Z,86
2023-04-13T05:48:46.272Z,86
2023-04-13T05:49:46.277Z,86
2023-04-13T05:50:46.286Z,86
2023-04-13T05:51:46.280Z,86
2023-04-13T05:52:46.270Z,133
2023-04-13T05:53:46.277Z,133
2023-04-13T05:54:46.282Z,133
2023-04-13T05:55:48.280Z,133
2023-04-13T05:56:46.295Z,133
2023-04-13T05:57:46.278Z,170
2023-04-13T05:58:46.282Z,170
2023-04-13T05:59:46.275Z,170
2023-04-13T06:00:46.276Z,170
2023-04-13T06:01:46.338Z,170
2023-04-13T06:02:46.374Z,192
2023-04-13T06:03:46.404Z,192
2023-04-13T06:04:46.346Z,192
2023-04-13T06:05:46.280Z,192
2023-04-13T06:06:46.280Z,192
2023-04-13T06:07:46.282Z,160
2023-04-13T06:08:46.281Z,160
2023-04-13T06:09:46.277Z,160
2023-04-13T06:10:46.280Z,160
2023-04-13T06:11:46.284Z,160
2023-04-13T06:12:46.300Z,129
2023-04-13T06:13:46.282Z,129
2023-04-13T06:14:46.280Z,129
2023-04-13T06:15:46.285Z,129
2023-04-13T06:16:46.331Z,129
2023-04-13T06:17:46.321Z,146
2023-04-13T06:18:46.290Z,146
2023-04-13T06:19:46.278Z,146
2023-04-13T06:20:46.280Z,146
2023-04-13T06:21:46.283Z,146
2023-04-13T06:22:46.286Z,164
2023-04-13T06:23:46.298Z,164
2023-04-13T06:24:46.281Z,164
2023-04-13T06:25:46.288Z,164
2023-04-13T06:26:46.293Z,164
2023-04-13T06:27:46.285Z,241
2023-04-13T06:28:46.312Z,241
2023-04-13T06:29:46.287Z,241
2023-04-13T06:30:46.307Z,241
2023-04-13T06:31:46.293Z,241
2023-04-13T06:32:46.314Z,290
2023-04-13T06:33:46.284Z,290
2023-04-13T06:34:46.289Z,290
2023-04-13T06:35:46.288Z,290
2023-04-13T06:36:46.286Z,290
2023-04-13T06:37:46.290Z,282
2023-04-13T06:38:46.287Z,282
2023-04-13T06:39:46.288Z,282
2023-04-13T06:40:46.289Z,282
2023-04-13T06:41:46.287Z,282
2023-04-13T06:42:46.288Z,287
2023-04-13T06:43:46.285Z,287
2023-04-13T06:44:46.318Z,287
2023-04-13T06:45:46.285Z,287
2023-04-13T06:46:46.327Z,287
2023-04-13T06:47:46.317Z,317
2023-04-13T06:48:46.288Z,317
2023-04-13T06:49:46.287Z,317
2023-04-13T06:50:46.291Z,317
2023-04-13T06:51:46.289Z,317
2023-04-13T06:52:46.291Z,326
2023-04-13T06:53:46.289Z,326
2023-04-13T06:54:46.289Z,326
2023-04-13T06:55:46.290Z,326
2023-04-13T06:56:46.286Z,326
2023-04-13T06:57:46.299Z,342
2023-04-13T06:58:46.312Z,342
2023-04-13T06:59:46.305Z,342
2023-04-13T07:00:46.343Z,342
2023-04-13T07:01:46.314Z,342
2023-04-13T07:02:46.419Z,483
2023-04-13T07:03:46.382Z,483
2023-04-13T07:04:46.309Z,483
2023-04-13T07:05:46.304Z,483
2023-04-13T07:06:46.300Z,483
2023-04-13T07:07:46.293Z,565
2023-04-13T07:08:46.295Z,565
2023-04-13T07:09:46.298Z,565
2023-04-13T07:10:46.308Z,565
2023-04-13T07:11:46.311Z,565
2023-04-13T07:12:46.297Z,568
2023-04-13T07:13:46.298Z,568
2023-04-13T07:14:46.312Z,568
2023-04-13T07:15:46.316Z,568
2023-04-13T07:16:46.324Z,568
2023-04-13T07:17:46.359Z,632
2023-04-13T07:18:46.296Z,632
2023-04-13T07:19:46.296Z,632
2023-04-13T07:20:46.307Z,632
2023-04-13T07:21:46.303Z,632
2023-04-13T07:22:46.304Z,664
2023-04-13T07:23:46.309Z,664
2023-04-13T07:24:46.308Z,664
2023-04-13T07:25:46.306Z,664
2023-04-13T07:26:46.305Z,664
2023-04-13T07:27:46.302Z,580
2023-04-13T07:28:46.300Z,580
2023-04-13T07:29:46.304Z,580
2023-04-13T07:30:46.305Z,580
2023-04-13T07:31:46.336Z,580
2023-04-13T07:32:46.342Z,580
2023-04-13T07:33:46.304Z,526
2023-04-13T07:34:46.309Z,526
2023-04-13T07:35:46.306Z,526
2023-04-13T07:36:46.321Z,526
2023-04-13T07:37:46.305Z,526
2023-04-13T07:38:46.310Z,517
2023-04-13T07:39:46.307Z,517
2023-04-13T07:40:46.318Z,517
2023-04-13T07:41:46.317Z,517
2023-04-13T07:42:46.308Z,517
2023-04-13T07:43:46.318Z,613
2023-04-13T07:44:46.315Z,613
2023-04-13T07:45:46.316Z,613
2023-04-13T07:46:46.353Z,613
2023-04-13T07:47:46.341Z,613
2023-04-13T07:48:46.336Z,634
2023-04-13T07:49:46.318Z,634
2023-04-13T07:50:46.315Z,634
2023-04-13T07:51:46.310Z,634
2023-04-13T07:52:46.321Z,634
2023-04-13T07:53:46.309Z,759
2023-04-13T07:54:46.315Z,759
2023-04-13T07:55:46.312Z,759
2023-04-13T07:56:46.315Z,759
2023-04-13T07:57:46.319Z,759
2023-04-13T07:58:46.316Z,921
2023-04-13T07:59:46.318Z,921
2023-04-13T08:00:46.320Z,921
2023-04-13T08:01:46.344Z,921
2023-04-13T08:02:46.556Z,921
2023-04-13T08:03:46.424Z,1021
2023-04-13T08:04:46.424Z,1021
2023-04-13T08:05:47.294Z,1021
2023-04-13T08:06:46.321Z,1021
2023-04-13T08:07:46.323Z,1021
2023-04-13T08:08:46.320Z,1113
2023-04-13T08:09:46.321Z,1113
2023-04-13T08:10:46.322Z,1113
2023-04-13T08:11:46.322Z,1113
2023-04-13T08:12:46.331Z,1113
2023-04-13T08:13:46.320Z,1119
2023-04-13T08:14:46.321Z,1119
2023-04-13T08:15:46.327Z,1119
2023-04-13T08:16:46.369Z,1119
2023-04-13T08:17:46.342Z,1119
2023-04-13T08:18:46.324Z,1185
2023-04-13T08:19:46.329Z,1185
2023-04-13T08:20:46.356Z,1185
2023-04-13T08:21:46.326Z,1185
2023-04-13T08:22:46.335Z,1185
2023-04-13T08:23:46.334Z,1183
2023-04-13T08:24:46.334Z,1183
2023-04-13T08:25:46.328Z,1183
2023-04-13T08:26:46.332Z,1183
2023-04-13T08:27:46.327Z,1183
2023-04-13T08:28:46.327Z,1218
2023-04-13T08:29:46.328Z,1218
2023-04-13T08:30:46.335Z,1218
2023-04-13T08:31:46.366Z,1218
2023-04-13T08:32:46.374Z,1218
2023-04-13T08:33:46.331Z,1370
2023-04-13T08:34:46.333Z,1370
2023-04-13T08:35:46.341Z,1370
2023-04-13T08:36:46.378Z,1370
2023-04-13T08:37:46.339Z,1370
2023-04-13T08:38:46.337Z,1554
2023-04-13T08:39:46.352Z,1554
2023-04-13T08:40:46.651Z,1554
2023-04-13T08:41:46.330Z,1554
2023-04-13T08:42:46.337Z,1554
2023-04-13T08:43:46.334Z,1663
2023-04-13T08:44:46.333Z,1663
2023-04-13T08:45:46.331Z,1663
2023-04-13T08:46:46.349Z,1663
2023-04-13T08:47:46.357Z,1663
2023-04-13T08:48:52.558Z,1597
2023-04-13T08:49:46.331Z,1597
2023-04-13T08:50:46.333Z,1597
2023-04-13T08:51:46.335Z,1597
2023-04-13T08:52:46.355Z,1597
2023-04-13T08:53:46.337Z,1395
2023-04-13T08:54:46.336Z,1395
2023-04-13T08:55:46.338Z,1395
2023-04-13T08:56:47.100Z,1395
2023-04-13T08:57:46.355Z,1278
2023-04-13T08:58:46.341Z,1278
2023-04-13T08:59:46.340Z,1278
2023-04-13T09:00:46.340Z,1278
2023-04-13T09:01:46.574Z,1278
2023-04-13T09:03:00.154Z,1241
2023-04-13T09:03:46.400Z,1241
2023-04-13T09:04:46.389Z,1241
2023-04-13T09:05:46.358Z,1241
2023-04-13T09:06:46.340Z,1241
2023-04-13T09:07:46.343Z,1194
2023-04-13T09:08:46.377Z,1194
2023-04-13T09:09:46.335Z,1194
2023-04-13T09:10:46.342Z,1194
2023-04-13T09:11:47.343Z,1194
2023-04-13T09:12:46.350Z,1242
2023-04-13T09:13:46.342Z,1242
2023-04-13T09:14:46.352Z,1242
2023-04-13T09:15:46.345Z,1242
2023-04-13T09:16:46.388Z,1242
2023-04-13T09:17:46.363Z,1211
2023-04-13T09:18:46.344Z,1211
2023-04-13T09:19:46.345Z,1211
2023-04-13T09:20:46.350Z,1211
2023-04-13T09:21:46.351Z,1211
2023-04-13T09:22:46.347Z,1273
2023-04-13T09:23:46.348Z,1273
2023-04-13T09:24:46.402Z,1273
2023-04-13T09:25:46.349Z,1273
2023-04-13T09:26:46.385Z,1273
2023-04-13T09:27:46.353Z,1429
2023-04-13T09:28:46.350Z,1429
2023-04-13T09:29:46.351Z,1429
2023-04-13T09:30:46.469Z,1429
2023-04-13T09:31:46.472Z,1429
2023-04-13T09:32:46.374Z,1330
2023-04-13T09:33:46.354Z,1330
2023-04-13T09:34:46.357Z,1330
2023-04-13T09:35:46.357Z,1330
2023-04-13T09:36:53.292Z,1330
2023-04-13T09:37:46.357Z,1130
2023-04-13T09:38:46.350Z,1130
2023-04-13T09:39:46.355Z,1130
2023-04-13T09:40:46.386Z,1130
2023-04-13T09:41:46.363Z,1130
2023-04-13T09:42:46.358Z,1065
2023-04-13T09:43:46.386Z,1065
2023-04-13T09:44:46.353Z,1065
2023-04-13T09:45:46.381Z,1065
2023-04-13T09:46:46.421Z,1065
2023-04-13T09:47:46.369Z,1092
2023-04-13T09:48:46.358Z,1092
2023-04-13T09:49:46.362Z,1092
2023-04-13T09:50:46.365Z,1092
2023-04-13T09:51:46.362Z,1092
2023-04-13T09:52:46.360Z,1128
2023-04-13T09:53:46.360Z,1128
2023-04-13T09:54:48.270Z,1128
2023-04-13T09:55:46.364Z,1128
2023-04-13T09:56:46.393Z,1128
2023-04-13T09:57:46.362Z,1299
2023-04-13T09:58:46.363Z,1299
2023-04-13T09:59:46.370Z,1299
2023-04-13T10:00:46.394Z,1299
2023-04-13T10:01:46.417Z,1299
2023-04-13T10:02:46.588Z,1686
2023-04-13T10:03:46.377Z,1686
2023-04-13T10:04:46.392Z,1686
2023-04-13T10:05:58.473Z,1735
2023-04-13T10:06:46.399Z,1735
2023-04-13T10:07:46.369Z,1735
2023-04-13T10:08:46.456Z,1735
2023-04-13T10:09:46.383Z,1735
2023-04-13T10:10:47.355Z,1729
2023-04-13T10:11:46.373Z,1729
2023-04-13T10:12:46.393Z,1729
2023-04-13T10:13:46.377Z,1729
2023-04-13T10:14:46.378Z,1729
2023-04-13T10:15:46.402Z,1661
2023-04-13T10:16:46.426Z,1661
2023-04-13T10:17:46.424Z,1661
2023-04-13T10:18:46.389Z,1661
2023-04-13T10:19:46.381Z,1661
2023-04-13T10:20:46.371Z,1454
2023-04-13T10:21:46.395Z,1454
2023-04-13T10:22:47.245Z,1454
2023-04-13T10:23:46.381Z,1454
2023-04-13T10:24:46.374Z,1454
2023-04-13T10:25:46.378Z,1360
2023-04-13T10:26:46.375Z,1360
2023-04-13T10:27:46.380Z,1360
2023-04-13T10:28:46.397Z,1360
2023-04-13T10:29:46.374Z,1360
2023-04-13T10:30:46.378Z,1277
2023-04-13T10:31:46.399Z,1277
2023-04-13T10:32:46.406Z,1277
2023-04-13T10:33:46.377Z,1277
2023-04-13T10:34:46.377Z,1277
2023-04-13T10:35:46.376Z,1257
2023-04-13T10:36:46.381Z,1257
2023-04-13T10:37:46.378Z,1257
2023-04-13T10:38:46.380Z,1257
2023-04-13T10:39:46.390Z,1257
2023-04-13T10:40:46.452Z,1300
2023-04-13T10:41:46.374Z,1300
2023-04-13T10:42:52.119Z,1300
2023-04-13T10:43:46.376Z,1300
2023-04-13T10:44:46.552Z,1300
2023-04-13T10:45:46.376Z,1333
2023-04-13T10:46:46.405Z,1333
2023-04-13T10:47:46.476Z,1333
2023-04-13T10:48:46.383Z,1333
2023-04-13T10:49:46.395Z,1333
2023-04-13T10:50:46.385Z,1349
2023-04-13T10:51:46.385Z,1349
2023-04-13T10:52:46.385Z,1349
2023-04-13T10:53:46.386Z,1349
2023-04-13T10:54:46.391Z,1349
2023-04-13T10:55:46.382Z,1383
2023-04-13T10:56:46.388Z,1383
2023-04-13T10:57:46.389Z,1383
2023-04-13T10:58:46.388Z,1383
2023-04-13T10:59:55.933Z,1383
2023-04-13T11:00:47.028Z,1427
2023-04-13T11:01:46.394Z,1427
2023-04-13T11:02:46.457Z,1427
2023-04-13T11:03:56.979Z,1427
2023-04-13T11:04:46.455Z,1427
2023-04-13T11:05:46.387Z,1508
2023-04-13T11:06:46.391Z,1508
2023-04-13T11:07:46.402Z,1508
2023-04-13T11:08:48.387Z,1508
2023-04-13T11:09:46.395Z,1508
2023-04-13T11:10:46.395Z,1588
2023-04-13T11:11:46.396Z,1588
2023-04-13T11:12:46.396Z,1588
2023-04-13T11:13:46.396Z,1588
2023-04-13T11:14:46.394Z,1588
2023-04-13T11:15:46.403Z,1928
2023-04-13T11:16:46.462Z,1928
2023-04-13T11:17:46.428Z,1928
2023-04-13T11:18:46.405Z,1928
2023-04-13T11:19:49.720Z,1928
2023-04-13T11:20:46.409Z,1551
2023-04-13T11:21:46.407Z,1551
2023-04-13T11:22:47.279Z,1551
2023-04-13T11:23:46.409Z,1551
2023-04-13T11:24:46.408Z,1551
2023-04-13T11:25:46.412Z,1410
2023-04-13T11:26:46.408Z,1410
2023-04-13T11:27:46.408Z,1410
2023-04-13T11:28:46.407Z,1410
2023-04-13T11:29:46.411Z,1410
2023-04-13T11:30:46.413Z,1372
2023-04-13T11:31:46.433Z,1372
2023-04-13T11:32:46.446Z,1372
2023-04-13T11:33:46.416Z,1372
2023-04-13T11:34:46.415Z,1372
2023-04-13T11:35:49.717Z,1140
2023-04-13T11:36:46.418Z,1140
2023-04-13T11:37:46.419Z,1140
2023-04-13T11:38:46.429Z,1140
2023-04-13T11:39:46.468Z,1140
2023-04-13T11:40:46.424Z,934
2023-04-13T11:41:46.419Z,934
2023-04-13T11:42:46.419Z,934
2023-04-13T11:43:46.721Z,934
2023-04-13T11:44:46.442Z,934
2023-04-13T11:45:46.455Z,962
2023-04-13T11:46:46.435Z,962
2023-04-13T11:47:46.483Z,962
2023-04-13T11:48:46.441Z,962
2023-04-13T11:49:46.423Z,962
2023-04-13T11:50:46.414Z,901
2023-04-13T11:51:46.415Z,901
2023-04-13T11:52:46.423Z,901
2023-04-13T11:53:46.417Z,901
2023-04-13T11:54:46.425Z,901
2023-04-13T11:55:53.107Z,920
2023-04-13T11:56:48.232Z,920
2023-04-13T11:57:46.428Z,920
2023-04-13T11:58:46.425Z,920
2023-04-13T11:59:46.431Z,920
2023-04-13T12:00:46.424Z,857
2023-04-13T12:01:49.919Z,857
2023-04-13T12:02:59.855Z,857
2023-04-13T12:04:46.630Z,857
2023-04-13T12:05:46.506Z,581
2023-04-13T12:06:46.699Z,581
2023-04-13T12:07:46.743Z,581
2023-04-13T12:08:48.264Z,581
2023-04-13T12:10:58.256Z,494
2023-04-13T12:11:49.944Z,494
2023-04-13T12:12:51.619Z,494
2023-04-13T12:13:49.661Z,494
2023-04-13T12:14:54.336Z,494
2023-04-13T12:15:58.093Z,511
2023-04-13T12:17:03.593Z,511
2023-04-13T12:18:47.409Z,511
2023-04-13T12:19:46.692Z,511
2023-04-13T12:20:46.512Z,535
2023-04-13T12:21:47.052Z,535
2023-04-13T12:23:46.611Z,535
2023-04-13T12:24:47.017Z,535
2023-04-13T12:25:47.517Z,527
2023-04-13T12:27:46.440Z,527
2023-04-13T12:28:46.437Z,527
2023-04-13T12:29:46.449Z,527
2023-04-13T12:30:46.442Z,661
2023-04-13T12:31:46.511Z,661
2023-04-13T12:32:46.471Z,661
2023-04-13T12:33:46.438Z,661
2023-04-13T12:34:46.446Z,661
2023-04-13T12:35:46.443Z,751
2023-04-13T12:36:46.470Z,729
2023-04-13T12:37:46.448Z,726
2023-04-13T12:38:46.464Z,757
2023-04-13T12:39:46.450Z,757
2023-04-13T12:40:46.449Z,757
2023-04-13T12:41:46.446Z,757
2023-04-13T12:42:46.449Z,757
2023-04-13T12:43:46.451Z,784
2023-04-13T12:44:46.446Z,784
2023-04-13T12:45:46.448Z,784
2023-04-13T12:46:46.461Z,784
2023-04-13T12:47:46.519Z,784
2023-04-13T12:48:46.464Z,859
2023-04-13T12:49:46.449Z,859
2023-04-13T12:50:46.458Z,859
2023-04-13T12:51:46.454Z,859
2023-04-13T12:52:46.476Z,859
2023-04-13T12:53:46.453Z,780
2023-04-13T12:54:46.456Z,780
2023-04-13T12:55:46.452Z,780
2023-04-13T12:56:46.451Z,780
2023-04-13T12:57:46.497Z,780
2023-04-13T12:58:46.452Z,651
2023-04-13T12:59:46.460Z,651
2023-04-13T13:00:46.470Z,651
2023-04-13T13:01:46.468Z,651
2023-04-13T13:02:46.496Z,651
2023-04-13T13:03:46.527Z,677
2023-04-13T13:04:46.483Z,677
2023-04-13T13:05:46.456Z,677
2023-04-13T13:06:46.455Z,677
2023-04-13T13:07:46.458Z,677
2023-04-13T13:08:46.478Z,722
2023-04-13T13:09:46.456Z,722
2023-04-13T13:10:46.462Z,722
2023-04-13T13:11:46.459Z,722
2023-04-13T13:12:46.463Z,722
2023-04-13T13:13:46.458Z,894
2023-04-13T13:14:46.461Z,894
2023-04-13T13:15:46.456Z,894
2023-04-13T13:16:46.468Z,894
2023-04-13T13:17:46.509Z,894
2023-04-13T13:18:50.707Z,832
2023-04-13T13:19:46.457Z,832
2023-04-13T13:20:46.459Z,832
2023-04-13T13:21:46.456Z,832
2023-04-13T13:22:46.463Z,832
2023-04-13T13:23:46.505Z,639
2023-04-13T13:24:46.489Z,639
2023-04-13T13:25:57.363Z,639
2023-04-13T13:27:12.034Z,639
2023-04-13T13:28:46.484Z,629
2023-04-13T13:29:46.466Z,629
2023-04-13T13:30:46.466Z,629
2023-04-13T13:31:46.492Z,629
2023-04-13T13:32:46.491Z,629
2023-04-13T13:33:46.512Z,741
2023-04-13T13:34:46.471Z,741
2023-04-13T13:35:46.468Z,741
2023-04-13T13:36:46.469Z,741
2023-04-13T13:37:46.476Z,741
2023-04-13T13:38:46.474Z,573
2023-04-13T13:39:46.473Z,573
2023-04-13T13:40:46.502Z,573
2023-04-13T13:41:46.475Z,573
2023-04-13T13:42:51.067Z,573
2023-04-13T13:43:46.512Z,435
2023-04-13T13:44:46.494Z,435
2023-04-13T13:45:46.503Z,435
2023-04-13T13:46:46.473Z,435
2023-04-13T13:47:46.515Z,435
2023-04-13T13:48:46.496Z,585
2023-04-13T13:49:46.476Z,585
2023-04-13T13:50:46.477Z,585
2023-04-13T13:51:46.486Z,585
2023-04-13T13:52:59.669Z,585
2023-04-13T13:53:46.480Z,775
2023-04-13T13:54:46.479Z,775
2023-04-13T13:55:46.485Z,775
2023-04-13T13:56:46.507Z,775
2023-04-13T13:57:46.481Z,775
2023-04-13T13:58:46.485Z,667
2023-04-13T13:59:48.860Z,667
2023-04-13T14:00:46.490Z,667
2023-04-13T14:01:46.510Z,667
2023-04-13T14:02:46.500Z,667
2023-04-13T14:03:46.579Z,648
2023-04-13T14:04:46.616Z,648
2023-04-13T14:05:46.501Z,648
2023-04-13T14:06:48.965Z,648